Skip to main content

NOAA/GLERL Met Station at Chicago, IL

Previous 3 Hours (2 minute increments)
See also Previous 5 Days (top of hour)
Jump down to Data
Switch to [English][Metric]
Zoom: Click and drag, Pan: shift-click and drag, Unzoom: double-click, Unzoom All




See also 1-day windrose plot


NOAA/GLERL Met Station at Chicago, IL

Previous 3 Hours (2 minute increments)
See also Previous 5 Days (top of hour only)
Jump up to Graphs
Switch to [English][Metric]
                  Wind  Wind  Wind   Air   Dew   Rel
                   Spd   Gst   Dir  Temp    Pt   Hum
YYYY-MM-DD   CDT   m/s   m/s   deg     C     C     %
2018-05-27 10:50   5.3   5.4   127  26.0  20.4  71.0
2018-05-27 10:48   5.4   5.5   128  25.9  20.6  72.3
2018-05-27 10:46   5.7   5.7   127  25.8  20.3  71.4
2018-05-27 10:44   5.8   5.9   129  25.6  20.2  71.7
2018-05-27 10:42   5.9   6.0   130  25.6  20.3  72.0
2018-05-27 10:40   5.7   5.8   129  25.6  20.5  72.9
2018-05-27 10:38   5.7   5.8   128  25.6  20.5  72.9
2018-05-27 10:36   5.2   5.5   127  25.7  20.8  74.0
2018-05-27 10:34   5.1   5.2   128  25.5  20.7  74.2
2018-05-27 10:32   5.1   5.2   129  25.5  20.5  73.6
2018-05-27 10:30   4.8   4.9   127  25.4  20.7  74.9
2018-05-27 10:28   5.0   5.1   128  25.3  20.5  74.4
2018-05-27 10:26   5.0   5.2   127  25.5  20.6  73.9
2018-05-27 10:24   4.5   4.6   126  25.4  20.8  75.5
2018-05-27 10:22   4.6   4.7   126  25.2  20.6  75.3
2018-05-27 10:20   4.6   4.6   124  25.1  20.5  75.1
2018-05-27 10:18   4.4   4.6   125  25.1  20.6  75.7
2018-05-27 10:16   4.4   4.4   128  25.0  20.5  75.5
2018-05-27 10:14   4.4   4.5   130  25.2  20.4  74.4
2018-05-27 10:12   4.2   4.4   130  25.5  20.5  73.6
2018-05-27 10:10   4.0   4.5   129  25.9  20.6  71.9
2018-05-27 10:08   3.7   4.4   130  26.5  20.8  70.4
2018-05-27 10:06   3.1   3.3   132  26.6  21.0  70.8
2018-05-27 10:04   3.4   3.4   134  26.8  21.0  70.1
2018-05-27 10:02   3.3   3.4   135  26.8  20.9  69.7
2018-05-27 10:00   2.9   3.0   134  27.0  21.0  69.2
2018-05-27 09:58   2.5   2.9   145  26.8  20.9  69.7
2018-05-27 09:56   2.3   2.7   150  26.8  20.9  69.6
2018-05-27 09:54   2.8   3.1   145  27.0  20.8  68.5
2018-05-27 09:52   2.5   2.6   149  27.1  20.9  68.4
2018-05-27 09:50   2.4   2.6   152  27.2  20.9  67.8
2018-05-27 09:48   2.0   2.0   160  27.3  21.2  68.7
2018-05-27 09:46   1.9   2.0   164  27.4  21.4  69.1
2018-05-27 09:44   1.6   1.8   165  27.3  21.4  69.8
2018-05-27 09:42   1.5   1.7   166  27.0  21.3  70.6
2018-05-27 09:40   1.7   1.8   166  26.8  21.1  70.5
2018-05-27 09:38   1.8   1.8   166  26.7  21.1  70.9
2018-05-27 09:36   1.8   1.8   163  26.6  21.0  70.9
2018-05-27 09:34   1.8   1.9   158  26.5  20.9  70.8
2018-05-27 09:32   1.8   1.8   158  26.4  20.9  71.5
2018-05-27 09:30   2.0   2.0   157  26.4  20.9  71.1
2018-05-27 09:28   1.9   2.0   150  26.2  20.7  71.4
2018-05-27 09:26   2.1   2.2   149  25.9  20.9  73.4
2018-05-27 09:24   2.4   2.6   144  25.3  20.5  74.5
2018-05-27 09:22   3.1   3.5   135  25.0  19.8  72.4
2018-05-27 09:20   3.3   3.5   135  25.5  19.9  70.8
2018-05-27 09:18   2.8   3.0   138  25.7  20.3  71.5
2018-05-27 09:16   2.5   2.9   143  25.6  20.3  72.2
2018-05-27 09:14   2.5   2.8   145  25.7  20.2  71.1
2018-05-27 09:12   2.2   2.6   150  25.9  20.3  70.9
2018-05-27 09:10   2.2   2.4   149  26.2  20.3  69.4
2018-05-27 09:08   2.0   2.4   155  26.4  20.6  70.0
2018-05-27 09:06   2.2   2.5   143  26.5  20.5  69.2
2018-05-27 09:04   1.9   2.0   136  26.3  21.0  72.3
2018-05-27 09:02   2.2   2.6   131  26.1  20.6  71.1
2018-05-27 09:00   2.2   2.8   129  26.9  20.3  66.8
2018-05-27 08:58   2.0   2.1   129  27.4  21.1  68.0
2018-05-27 08:56   1.7   1.9   130  27.5  21.1  67.5
2018-05-27 08:54   1.5   1.6   133  27.6  21.1  67.0
2018-05-27 08:52   1.1   1.4   138  27.6  21.1  67.0
2018-05-27 08:50   1.3   1.4   138  27.4  21.1  67.8
2018-05-27 08:48   1.2   1.4   135  27.3  21.0  68.1
2018-05-27 08:46   1.5   1.6   131  27.2  21.0  68.4
2018-05-27 08:44   1.3   1.5   136  27.1  21.0  68.7
2018-05-27 08:42   0.9   1.1   148  26.9  21.0  69.5
2018-05-27 08:40   0.6   0.8   154  26.4  21.0  71.6
2018-05-27 08:38   0.6   0.8   176  25.9  20.9  73.6
2018-05-27 08:36   0.6   0.8   196  25.6  20.8  74.5
2018-05-27 08:34   0.6   0.7   201  25.6  20.8  74.6
2018-05-27 08:32   0.5   0.7   205  25.5  20.8  74.8
2018-05-27 08:30   0.8   0.9   204  25.5  20.8  75.0
2018-05-27 08:28   0.7   0.9   199  25.4  20.8  75.5
2018-05-27 08:26   0.9   1.0   213  25.2  20.7  75.9
2018-05-27 08:24   1.0   1.2   215  25.2  20.8  76.1
2018-05-27 08:22   1.0   1.2   207  25.1  20.7  76.4
2018-05-27 08:20   1.0   1.2   210  25.1  20.6  75.8
2018-05-27 08:18   1.1   1.3   228  25.2  20.7  75.7
2018-05-27 08:16   1.1   1.3   231  25.2  20.7  75.6
2018-05-27 08:14   1.3   1.4   236  25.2  20.8  76.0
2018-05-27 08:12   1.2   1.5   228  25.0  20.7  76.5
2018-05-27 08:10   1.2   1.3   223  24.9  20.6  76.8
2018-05-27 08:08   1.1   1.4   211  24.9  20.6  76.7
2018-05-27 08:06   1.4   1.6   225  24.9  20.6  76.7
2018-05-27 08:04   1.5   1.7   229  24.9  20.6  76.8
2018-05-27 08:02   1.4   1.6   226  24.8  20.6  77.0
2018-05-27 08:00   1.2   1.3   229  24.8  20.5  76.7
2018-05-27 07:58   1.2   1.4   235  24.7  20.5  77.3
2018-05-27 07:56   0.9   1.2   225  24.5  20.4  77.6
2018-05-27 07:54   0.8   1.1   227  24.4  20.4  77.9
2018-05-27 07:52   0.8   1.5   235  24.4  20.3  77.7
2018-05-27 07:50   1.7   1.9   240  24.4  20.4  78.1